createdAt,value
2023-03-22T00:01:58.490Z,100119.94
2023-03-22T00:04:26.202Z,100132.88
2023-03-22T00:06:53.254Z,100126.75
2023-03-22T00:09:20.744Z,100126.72
2023-03-22T00:11:50.573Z,100121.28
2023-03-22T00:14:18.710Z,100118.78
2023-03-22T00:16:46.067Z,100122.91
2023-03-22T00:19:13.448Z,100126.13
2023-03-22T00:21:40.500Z,100121.50
2023-03-22T00:24:08.448Z,100126.47
2023-03-22T00:26:35.820Z,100131.66
2023-03-22T00:29:03.712Z,100136.72
2023-03-22T00:31:31.217Z,100135.41
2023-03-22T00:33:58.658Z,100127.97
2023-03-22T00:36:25.852Z,100132.94
2023-03-22T00:38:52.943Z,100135.13
2023-03-22T00:41:21.849Z,100138.72
2023-03-22T00:43:50.070Z,100126.59
2023-03-22T00:46:18.994Z,100133.56
2023-03-22T00:48:46.256Z,100141.31
2023-03-22T00:51:13.985Z,100138.50
2023-03-22T00:53:43.317Z,100135.38
2023-03-22T00:56:13.654Z,100136.03
2023-03-22T00:58:56.134Z,100139.91
2023-03-22T01:01:23.521Z,100130.59
2023-03-22T01:03:50.788Z,100135.09
2023-03-22T01:06:18.416Z,100125.09
2023-03-22T01:08:45.859Z,100131.44
2023-03-22T01:11:12.990Z,100137.97
2023-03-22T01:13:43.420Z,100126.19
2023-03-22T01:16:10.843Z,100113.94
2023-03-22T01:18:38.605Z,100123.53
2023-03-22T01:21:07.103Z,100122.31
2023-03-22T01:27:53.972Z,100134.94
2023-03-22T01:30:21.165Z,100121.53
2023-03-22T01:32:48.822Z,100130.81
2023-03-22T01:35:17.566Z,100128.09
2023-03-22T01:37:44.688Z,100125.72
2023-03-22T01:40:13.397Z,100130.19
2023-03-22T01:42:40.803Z,100124.66
2023-03-22T01:45:18.851Z,100123.56
2023-03-22T01:47:48.107Z,100121.75
2023-03-22T01:50:16.368Z,100132.66
2023-03-22T01:52:45.635Z,100126.06
2023-03-22T01:55:22.414Z,100126.94
2023-03-22T01:57:56.765Z,100125.84
2023-03-22T02:00:37.832Z,100131.09
2023-03-22T02:03:23.497Z,100135.69
2023-03-22T02:05:50.561Z,100138.59
2023-03-22T02:08:18.071Z,100136.59
2023-03-22T02:11:01.236Z,100139.75
2023-03-22T02:14:03.516Z,100149.16
2023-03-22T02:17:00.131Z,100143.91
2023-03-22T02:19:42.048Z,100143.91
2023-03-22T02:22:38.613Z,100149.91
2023-03-22T02:25:43.540Z,100146.38
2023-03-22T02:28:28.331Z,100145.09
2023-03-22T02:31:26.111Z,100138.56
2023-03-22T02:34:17.150Z,100157.94
2023-03-22T02:37:05.935Z,100156.50
2023-03-22T02:39:42.099Z,100147.84
2023-03-22T02:42:31.302Z,100150.44
2023-03-22T02:45:01.500Z,100145.47
2023-03-22T02:47:54.073Z,100146.31
2023-03-22T02:50:40.692Z,100141.91
2023-03-22T02:53:16.316Z,100149.78
2023-03-22T02:56:06.216Z,100150.47
2023-03-22T02:58:39.081Z,100145.78
2023-03-22T03:01:10.002Z,100141.94
2023-03-22T03:03:40.237Z,100153.81
2023-03-22T03:06:10.223Z,100148.72
2023-03-22T03:08:37.571Z,100145.25
2023-03-22T03:11:05.365Z,100142.84
2023-03-22T03:13:32.744Z,100138.94
2023-03-22T03:16:00.182Z,100131.19
2023-03-22T03:19:03.564Z,100138.31
2023-03-22T03:21:36.843Z,100135.91
2023-03-22T03:24:31.729Z,100133.81
2023-03-22T03:27:04.674Z,100128.78
2023-03-22T03:29:38.145Z,100127.50
2023-03-22T03:32:25.306Z,100129.69
2023-03-22T03:34:59.004Z,100124.97
2023-03-22T03:37:29.451Z,100127.56
2023-03-22T03:40:14.706Z,100123.59
2023-03-22T03:42:49.091Z,100115.00
2023-03-22T03:45:16.422Z,100123.59
2023-03-22T03:47:45.205Z,100128.56
2023-03-22T03:50:13.161Z,100114.44
2023-03-22T03:52:40.274Z,100123.47
2023-03-22T03:55:07.676Z,100123.22
2023-03-22T03:57:36.124Z,100122.94
2023-03-22T04:00:05.136Z,100114.22
2023-03-22T04:02:48.026Z,100115.75
2023-03-22T04:05:39.376Z,100109.78
2023-03-22T04:08:07.312Z,100105.72
2023-03-22T04:10:34.962Z,100108.88
2023-03-22T04:13:02.307Z,100110.56
2023-03-22T04:15:30.045Z,100104.53
2023-03-22T04:18:01.101Z,100107.44
2023-03-22T04:20:33.007Z,100102.97
2023-03-22T04:23:00.471Z,100091.25
2023-03-22T04:25:29.890Z,100102.22
2023-03-22T04:28:06.087Z,100099.31
2023-03-22T04:30:35.821Z,100091.84
2023-03-22T04:33:23.260Z,100094.38
2023-03-22T04:36:17.089Z,100086.78
2023-03-22T04:39:11.187Z,100088.44
2023-03-22T04:41:40.399Z,100089.44
2023-03-22T04:44:08.257Z,100084.97
2023-03-22T04:46:38.777Z,100084.63
2023-03-22T04:49:07.353Z,100076.88
2023-03-22T04:51:38.627Z,100080.28
2023-03-22T04:54:28.188Z,100088.84
2023-03-22T04:56:55.510Z,100081.50
2023-03-22T04:59:24.976Z,100081.13
2023-03-22T05:01:52.524Z,100072.28
2023-03-22T05:04:24.820Z,100077.72
2023-03-22T05:06:58.897Z,100072.03
2023-03-22T05:09:33.647Z,100059.19
2023-03-22T05:12:01.962Z,100067.47
2023-03-22T05:14:38.381Z,100060.34
2023-03-22T05:17:08.390Z,100056.63
2023-03-22T05:19:38.707Z,100065.91
2023-03-22T05:22:06.118Z,100067.13
2023-03-22T05:24:43.640Z,100051.56
2023-03-22T05:27:15.254Z,100051.84
2023-03-22T05:29:44.657Z,100061.81
2023-03-22T05:32:25.190Z,100052.13
2023-03-22T05:34:55.660Z,100049.81
2023-03-22T05:37:34.826Z,100046.09
2023-03-22T05:40:09.694Z,100037.13
2023-03-22T05:42:41.526Z,100037.56
2023-03-22T05:45:27.729Z,100044.34
2023-03-22T05:48:15.906Z,100038.78
2023-03-22T05:50:43.438Z,100038.91
2023-03-22T05:53:11.660Z,100028.47
2023-03-22T05:55:48.029Z,100029.13
2023-03-22T05:58:18.763Z,100032.66
2023-03-22T06:00:49.648Z,100023.75
2023-03-22T06:03:35.752Z,100029.06
2023-03-22T06:06:13.573Z,100023.03
2023-03-22T06:08:53.612Z,100015.44
2023-03-22T06:11:20.826Z,100007.97
2023-03-22T06:13:48.075Z,100012.69
2023-03-22T06:16:17.160Z,100003.06
2023-03-22T06:18:44.550Z,100009.69
2023-03-22T06:21:13.257Z,100009.09
2023-03-22T06:23:41.125Z,100005.13
2023-03-22T06:26:11.189Z,99999.34
2023-03-22T06:28:39.712Z,100007.75
2023-03-22T06:31:09.093Z,99992.69
2023-03-22T06:33:48.009Z,99996.31
2023-03-22T06:36:29.816Z,99992.44
2023-03-22T06:39:05.578Z,99981.84
2023-03-22T06:41:33.265Z,99989.56
2023-03-22T06:44:02.286Z,99982.66
2023-03-22T06:46:58.412Z,99973.47
2023-03-22T06:49:43.831Z,99975.75
2023-03-22T06:52:17.479Z,99984.44
2023-03-22T06:54:45.475Z,99977.16
2023-03-22T06:57:12.582Z,99970.19
2023-03-22T06:59:40.122Z,99962.59
2023-03-22T07:02:07.250Z,99962.13
2023-03-22T07:04:35.045Z,99979.69
2023-03-22T07:07:17.940Z,99963.69
2023-03-22T07:09:45.528Z,99964.25
2023-03-22T07:12:12.973Z,99958.22
2023-03-22T07:14:40.608Z,99945.69
2023-03-22T07:17:37.221Z,99948.75
2023-03-22T07:20:05.248Z,99942.38
2023-03-22T07:22:33.271Z,99946.63
2023-03-22T07:25:01.841Z,99955.41
2023-03-22T07:27:32.113Z,99945.84
2023-03-22T07:30:00.463Z,99940.69
2023-03-22T07:32:28.765Z,99935.88
2023-03-22T07:35:09.251Z,99932.16
2023-03-22T07:37:36.583Z,99931.19
2023-03-22T07:40:09.124Z,99930.34
2023-03-22T07:42:37.952Z,99928.16
2023-03-22T07:45:24.048Z,99925.13
2023-03-22T07:48:22.627Z,99917.78
2023-03-22T07:51:14.633Z,99910.91
2023-03-22T07:53:42.231Z,99908.63
2023-03-22T07:56:09.575Z,99912.16
2023-03-22T07:58:37.699Z,99910.00
2023-03-22T08:01:08.676Z,99914.44
2023-03-22T08:04:08.144Z,99898.53
2023-03-22T08:06:46.490Z,99904.56
2023-03-22T08:09:13.674Z,99901.66
2023-03-22T08:11:41.281Z,99905.88
2023-03-22T08:14:09.082Z,99901.44
2023-03-22T08:16:38.966Z,99899.13
2023-03-22T08:19:06.480Z,99893.25
2023-03-22T08:21:36.969Z,99903.47
2023-03-22T08:24:07.564Z,99884.56
2023-03-22T08:26:54.946Z,99897.81
2023-03-22T08:29:32.727Z,99885.53
2023-03-22T08:32:02.170Z,99884.31
2023-03-22T08:34:30.983Z,99883.59
2023-03-22T08:36:58.425Z,99882.03
2023-03-22T08:39:26.170Z,99881.91
2023-03-22T08:42:16.622Z,99870.84
2023-03-22T08:44:43.917Z,99880.22
2023-03-22T08:47:11.496Z,99876.75
2023-03-22T08:49:41.843Z,99867.56
2023-03-22T08:52:24.633Z,99872.03
2023-03-22T08:55:24.557Z,99867.56
2023-03-22T08:58:14.622Z,99870.09
2023-03-22T09:00:52.468Z,99882.03
2023-03-22T09:03:25.301Z,99878.91
2023-03-22T09:05:52.663Z,99861.91
2023-03-22T09:08:20.493Z,99860.94
2023-03-22T09:10:53.739Z,99859.50
2023-03-22T09:13:23.032Z,99855.16
2023-03-22T09:15:55.392Z,99854.31
2023-03-22T09:18:25.354Z,99851.09
2023-03-22T09:20:54.539Z,99840.13
2023-03-22T09:23:26.667Z,99848.78
2023-03-22T09:25:54.355Z,99840.81
2023-03-22T09:28:25.131Z,99833.59
2023-03-22T09:30:59.503Z,99832.63
2023-03-22T09:33:26.942Z,99829.00
2023-03-22T09:35:56.918Z,99823.25
2023-03-22T09:38:24.826Z,99832.63
2023-03-22T09:41:00.146Z,99817.19
2023-03-22T09:43:33.996Z,99818.16
2023-03-22T09:46:01.301Z,99823.97
2023-03-22T09:48:38.300Z,99827.34
2023-03-22T09:51:07.734Z,99817.94
2023-03-22T09:53:34.947Z,99831.19
2023-03-22T09:56:13.662Z,99806.63
2023-03-22T09:58:46.638Z,99810.47
2023-03-22T10:01:13.567Z,99807.94
2023-03-22T10:04:04.461Z,99815.28
2023-03-22T10:06:31.952Z,99815.53
2023-03-22T10:09:14.320Z,99815.41
2023-03-22T10:11:46.853Z,99819.63
2023-03-22T10:14:26.280Z,99824.22
2023-03-22T10:16:56.435Z,99813.72
2023-03-22T10:19:47.269Z,99816.28
2023-03-22T10:22:16.231Z,99816.28
2023-03-22T10:24:44.343Z,99810.09
2023-03-22T10:27:16.927Z,99825.91
2023-03-22T10:29:47.499Z,99816.38
2023-03-22T10:32:16.664Z,99814.47
2023-03-22T10:34:44.316Z,99807.56
2023-03-22T10:37:22.326Z,99797.94
2023-03-22T10:39:50.863Z,99801.69
2023-03-22T10:42:20.911Z,99808.19
2023-03-22T10:45:07.885Z,99805.69
2023-03-22T10:47:39.990Z,99807.69
2023-03-22T10:50:36.572Z,99801.81
2023-03-22T10:53:20.236Z,99807.94
2023-03-22T10:55:47.505Z,99800.97
2023-03-22T10:58:18.416Z,99805.66
2023-03-22T11:00:46.822Z,99803.97
2023-03-22T11:03:38.700Z,99803.38
2023-03-22T11:06:13.175Z,99791.19
2023-03-22T11:08:43.158Z,99800.59
2023-03-22T11:11:29.620Z,99790.13
2023-03-22T11:13:59.537Z,99789.72
2023-03-22T11:16:27.486Z,99789.38
2023-03-22T11:18:55.330Z,99786.25
2023-03-22T11:21:25.904Z,99787.66
2023-03-22T11:24:02.525Z,99786.09
2023-03-22T11:26:34.238Z,99788.38
2023-03-22T11:29:16.513Z,99783.19
2023-03-22T11:31:58.113Z,99788.72
2023-03-22T11:34:30.934Z,99786.28
2023-03-22T11:37:01.609Z,99801.56
2023-03-22T11:39:29.666Z,99785.41
2023-03-22T11:41:59.512Z,99781.31
2023-03-22T11:44:27.161Z,99776.38
2023-03-22T11:46:58.031Z,99786.34
2023-03-22T11:49:27.987Z,99773.56
2023-03-22T11:51:55.559Z,99786.91
2023-03-22T11:54:30.121Z,99785.47
2023-03-22T11:57:03.601Z,99780.59
2023-03-22T11:59:37.822Z,99776.88
2023-03-22T12:02:11.506Z,99775.53
2023-03-22T12:04:39.227Z,99783.88
2023-03-22T12:07:14.265Z,99788.91
2023-03-22T12:09:57.508Z,99790.28
2023-03-22T12:12:31.143Z,99784.75
2023-03-22T12:15:15.859Z,99791.28
2023-03-22T12:17:56.912Z,99782.34
2023-03-22T12:20:56.491Z,99785.63
2023-03-22T12:23:26.342Z,99778.06
2023-03-22T12:25:58.614Z,99787.06
2023-03-22T12:28:41.443Z,99788.25
2023-03-22T12:31:33.319Z,99776.28
2023-03-22T12:34:03.633Z,99778.53
2023-03-22T12:36:48.415Z,99776.31
2023-03-22T12:39:29.742Z,99783.50
2023-03-22T12:42:00.156Z,99773.38
2023-03-22T12:44:28.533Z,99781.63
2023-03-22T12:46:56.719Z,99780.97
2023-03-22T12:49:36.111Z,99775.78
2023-03-22T12:52:32.007Z,99776.84
2023-03-22T12:55:05.670Z,99773.69
2023-03-22T12:57:32.775Z,99770.31
2023-03-22T13:00:05.476Z,99782.84
2023-03-22T13:02:33.984Z,99778.63
2023-03-22T13:05:06.497Z,99777.91
2023-03-22T13:07:37.913Z,99776.22
2023-03-22T13:10:34.037Z,99775.03
2023-03-22T13:13:22.645Z,99778.63
2023-03-22T13:16:01.381Z,99780.31
2023-03-22T13:18:37.943Z,99772.63
2023-03-22T13:21:16.916Z,99773.38
2023-03-22T13:24:10.179Z,99780.53
2023-03-22T13:26:52.283Z,99773.69
2023-03-22T13:29:26.734Z,99773.06
2023-03-22T13:32:00.981Z,99774.97
2023-03-22T13:34:38.560Z,99772.22
2023-03-22T13:37:10.768Z,99771.59
2023-03-22T13:39:39.115Z,99774.41
2023-03-22T13:42:20.800Z,99769.34
2023-03-22T13:44:58.430Z,99766.81
2023-03-22T13:47:36.103Z,99771.47
2023-03-22T13:50:07.294Z,99773.34
2023-03-22T13:52:43.005Z,99767.13
2023-03-22T13:55:47.098Z,99762.16
2023-03-22T13:58:36.129Z,99774.50
2023-03-22T14:01:17.255Z,99779.03
2023-03-22T14:03:45.311Z,99774.06
2023-03-22T14:06:26.872Z,99769.97
2023-03-22T14:08:57.297Z,99770.16
2023-03-22T14:11:38.067Z,99769.84
2023-03-22T14:14:10.986Z,99762.78
2023-03-22T14:17:00.500Z,99769.13
2023-03-22T14:19:31.418Z,99763.09
